Time;durP1;ratioP1;P1;durP2;ratioP2;P2;SDS_P1;SDS_P2;PMS_P1;PMS_P2;Temp;Humidity;BMP_temperature;BMP_pressure;BME280_temperature;BME280_humidity;BME280_pressure;Samples;Min_cycle;Max_cycle;Signal;HPM_P1;HPM_P2
2022/05/04 00:01:43;;;;;;;8.40;5.68;;;;;;;8.88;87.18;97313.63;5039651;28;20500;-66
2022/05/04 00:04:10;;;;;;;9.93;5.15;;;;;;;8.91;86.98;97310.44;5046167;28;20045;-65
2022/05/04 00:06:36;;;;;;;8.00;5.47;;;;;;;8.95;86.56;97308.88;5052769;28;20048;-65
2022/05/04 00:09:03;;;;;;;9.13;6.20;;;;;;;8.90;86.92;97307.97;5053426;28;20053;-65
2022/05/04 00:11:30;;;;;;;10.32;6.78;;;;;;;8.74;87.43;97304.19;5045371;28;20059;-65
2022/05/04 00:13:56;;;;;;;8.05;5.78;;;;;;;8.71;87.46;97302.78;5046682;28;20048;-65
2022/05/04 00:16:23;;;;;;;8.15;5.95;;;;;;;8.69;87.48;97300.31;5046426;28;20122;-65
2022/05/04 00:18:49;;;;;;;9.82;6.55;;;;;;;8.68;87.63;97296.00;5046213;28;20037;-65
2022/05/04 00:21:16;;;;;;;11.25;5.65;;;;;;;8.73;87.54;97299.84;5045339;28;20528;-65
2022/05/04 00:23:43;;;;;;;10.13;6.30;;;;;;;8.72;86.93;97304.41;5047170;28;20049;-65
2022/05/04 00:26:09;;;;;;;8.43;6.22;;;;;;;8.52;88.07;97299.44;5045253;28;20049;-65
2022/05/04 00:28:36;;;;;;;9.68;5.88;;;;;;;8.42;88.27;97302.75;5045827;28;20040;-65
2022/05/04 00:31:02;;;;;;;9.55;5.88;;;;;;;8.50;87.84;97296.97;5044920;28;20045;-65
2022/05/04 00:33:29;;;;;;;7.70;5.18;;;;;;;8.53;87.43;97299.22;5046777;28;20473;-65
2022/05/04 00:35:56;;;;;;;9.35;5.80;;;;;;;8.50;87.50;97296.97;5046043;28;20442;-65
2022/05/04 00:38:22;;;;;;;6.70;4.97;;;;;;;8.38;88.14;97299.72;5046069;28;20053;-65
2022/05/04 00:40:49;;;;;;;8.68;6.22;;;;;;;8.33;88.80;97296.88;5044450;28;20098;-65
2022/05/04 00:43:20;;;;;;;10.98;6.50;;;;;;;8.33;88.61;97300.41;5046298;28;20041;-65
2022/05/04 00:45:47;;;;;;;;;;;;;;;8.43;87.98;97296.28;5037161;28;20040;-65
2022/05/04 00:48:13;;;;;;;10.00;6.68;;;;;;;8.26;88.39;97294.34;5044778;28;19920;-65
2022/05/04 00:50:40;;;;;;;8.73;5.90;;;;;;;8.16;88.72;97297.66;5045023;28;20040;-65
2022/05/04 00:53:07;;;;;;;9.13;6.30;;;;;;;8.00;89.66;97293.00;5046278;28;20086;-65
2022/05/04 00:55:34;;;;;;;9.18;6.35;;;;;;;8.02;89.49;97296.28;5044943;28;20412;-65
2022/05/04 01:00:48;;;;;;;11.43;7.35;;;;;;;7.87;90.30;97297.59;5044884;28;20078;-65
2022/05/04 01:03:16;;;;;;;10.27;6.10;;;;;;;7.89;90.22;97297.34;5043589;28;20072;-65
2022/05/04 01:05:43;;;;;;;9.27;6.05;;;;;;;7.95;90.35;97296.41;5045590;28;20591;-65
2022/05/04 01:08:10;;;;;;;9.32;6.38;;;;;;;7.86;90.52;97295.97;5058991;28;20059;-65
2022/05/04 01:10:36;;;;;;;8.27;5.57;;;;;;;7.91;90.09;97295.22;5044943;28;20055;-65
2022/05/04 01:13:03;;;;;;;11.18;6.70;;;;;;;7.90;89.96;97299.81;5046029;28;20272;-65
2022/05/04 01:15:29;;;;;;;8.45;5.60;;;;;;;7.96;89.87;97299.94;5045331;28;20041;-65
2022/05/04 01:17:56;;;;;;;10.68;6.72;;;;;;;7.97;89.58;97298.88;5045695;28;20045;-65
2022/05/04 01:20:24;;;;;;;9.50;6.18;;;;;;;7.91;89.56;97303.31;5038536;28;20044;-65
2022/05/04 01:22:51;;;;;;;9.20;6.10;;;;;;;7.86;89.47;97303.22;5032767;28;20486;-65
2022/05/04 01:25:18;;;;;;;8.60;5.80;;;;;;;7.74;89.95;97306.72;5042825;28;20126;-65
2022/05/04 01:27:44;;;;;;;9.48;5.63;;;;;;;7.82;89.53;97300.19;5044944;28;20051;-65
2022/05/04 01:30:12;;;;;;;8.90;6.25;;;;;;;7.86;89.56;97304.03;5044340;28;20052;-65
2022/05/04 01:32:39;;;;;;;7.85;5.63;;;;;;;7.84;89.26;97314.22;5044570;28;20049;-65
2022/05/04 01:35:06;;;;;;;8.23;5.82;;;;;;;7.75;89.98;97311.09;5045290;28;20037;-65
2022/05/04 01:37:33;;;;;;;8.95;5.88;;;;;;;7.71;90.35;97311.78;5045036;28;20041;-65
2022/05/04 01:39:59;;;;;;;8.50;6.03;;;;;;;7.60;90.67;97313.41;5043286;28;20155;-65
2022/05/04 01:42:26;;;;;;;9.80;6.05;;;;;;;7.61;90.85;97310.50;5044821;28;20037;-65
2022/05/04 01:44:52;;;;;;;8.75;6.15;;;;;;;7.37;91.11;97306.97;5044190;28;20043;-65
2022/05/04 01:47:19;;;;;;;8.88;6.50;;;;;;;7.39;91.41;97305.69;5044507;28;20044;-65
2022/05/04 01:49:45;;;;;;;10.23;6.05;;;;;;;7.38;91.50;97308.59;5045302;28;20049;-65
2022/05/04 01:52:13;;;;;;;9.18;5.78;;;;;;;7.47;91.13;97309.06;5043501;28;20048;-65
2022/05/04 01:54:39;;;;;;;8.77;6.07;;;;;;;7.50;91.18;97305.91;5043944;28;20048;-65
2022/05/04 01:57:06;;;;;;;8.90;5.95;;;;;;;7.54;90.93;97312.47;5043585;28;20574;-65
2022/05/04 01:59:32;;;;;;;9.30;5.40;;;;;;;7.57;90.58;97306.63;5044445;28;20037;-65
2022/05/04 02:01:59;;;;;;;8.45;6.03;;;;;;;7.59;90.28;97301.81;5043841;28;20044;-65
2022/05/04 02:04:26;;;;;;;11.13;5.80;;;;;;;7.52;90.43;97307.31;5044364;28;20045;-65
2022/05/04 02:06:53;;;;;;;6.70;5.00;;;;;;;7.52;90.39;97303.81;5053646;28;20094;-65
2022/05/04 02:09:20;;;;;;;9.38;5.80;;;;;;;7.57;90.16;97297.72;5045688;28;20037;-65
2022/05/04 02:11:46;;;;;;;9.15;5.57;;;;;;;7.60;90.11;97295.38;5042015;28;20037;-65
2022/05/04 02:14:13;;;;;;;6.40;5.00;;;;;;;7.64;89.44;97293.03;5044840;28;20124;-65
2022/05/04 02:16:39;;;;;;;9.02;5.95;;;;;;;7.46;90.29;97296.66;5044393;28;20071;-65
2022/05/04 02:19:06;;;;;;;10.73;5.95;;;;;;;7.45;90.82;97295.03;5044558;28;20516;-65
2022/05/04 02:21:33;;;;;;;8.02;5.22;;;;;;;7.41;91.04;97300.06;5047470;28;20037;-65
2022/05/04 02:23:59;;;;;;;9.88;6.35;;;;;;;7.47;90.70;97299.13;5046923;28;20041;-65
2022/05/04 02:26:26;;;;;;;10.35;5.70;;;;;;;7.59;90.25;97293.72;5048286;28;20060;-65
2022/05/04 02:28:52;;;;;;;8.95;5.80;;;;;;;7.58;90.04;97296.66;5048784;28;20036;-65
2022/05/04 02:31:19;;;;;;;7.72;5.35;;;;;;;7.52;90.44;97301.13;5047984;28;20049;-65
2022/05/04 02:33:47;;;;;;;8.88;6.47;;;;;;;7.46;90.48;97293.97;5048254;28;20037;-65
2022/05/04 02:38:59;;;;;;;8.45;5.90;;;;;;;7.36;90.82;97298.06;5048648;28;20041;-65
2022/05/04 02:41:26;;;;;;;8.18;5.90;;;;;;;7.26;91.29;97295.94;5046254;28;20083;-65
2022/05/04 02:43:52;;;;;;;8.25;5.95;;;;;;;7.27;90.95;97297.56;5048454;28;20467;-65
2022/05/04 02:46:20;;;;;;;9.48;5.80;;;;;;;7.28;91.12;97296.53;5047025;28;20048;-65
2022/05/04 02:48:47;;;;;;;9.50;6.47;;;;;;;7.23;91.30;97301.78;5048603;28;20076;-65
2022/05/04 02:51:14;;;;;;;10.40;6.32;;;;;;;7.17;91.65;97291.94;5045908;28;20945;-65
2022/05/04 02:53:41;;;;;;;10.88;6.78;;;;;;;7.11;92.19;97288.31;5044028;28;20052;-65
2022/05/04 02:56:10;;;;;;;9.68;6.35;;;;;;;7.02;92.34;97289.69;5046948;28;20063;-65
2022/05/04 02:58:37;;;;;;;10.77;7.25;;;;;;;7.04;92.16;97287.56;5047675;28;20044;-65
2022/05/04 03:04:03;;;;;;;8.95;6.78;;;;;;;6.64;93.13;97292.50;5037557;28;20765;-65
2022/05/04 03:06:29;;;;;;;11.65;7.43;;;;;;;6.56;93.36;97289.34;5052804;28;20037;-65
2022/05/04 03:08:56;;;;;;;13.90;6.95;;;;;;;6.51;93.26;97287.31;5056153;28;20047;-65
2022/05/04 03:14:08;;;;;;;10.48;7.18;;;;;;;6.59;93.45;97284.31;5047002;28;20049;-65
2022/05/04 03:16:35;;;;;;;9.88;6.72;;;;;;;6.54;93.56;97286.88;5047500;28;20053;-65
2022/05/04 03:19:03;;;;;;;10.00;6.57;;;;;;;6.69;94.32;97285.63;5047846;28;20125;-65
2022/05/04 03:21:30;;;;;;;9.75;6.85;;;;;;;6.70;93.71;97281.88;5045824;28;20049;-65
2022/05/04 03:23:56;;;;;;;10.65;7.80;;;;;;;6.66;94.04;97286.91;5044354;28;20041;-65
2022/05/04 03:26:24;;;;;;;11.82;8.68;;;;;;;6.69;94.54;97278.38;5046680;28;20051;-65
2022/05/04 03:28:51;;;;;;;15.88;7.88;;;;;;;6.82;94.33;97287.31;5048141;28;20037;-65
2022/05/04 03:31:19;;;;;;;12.50;7.40;;;;;;;6.90;93.36;97284.28;5045900;28;20532;-65
2022/05/04 03:33:45;;;;;;;12.32;7.47;;;;;;;6.94;93.30;97290.03;5047689;28;20048;-65
2022/05/04 03:36:12;;;;;;;12.05;7.55;;;;;;;7.00;93.26;97287.22;5045873;28;20045;-65
2022/05/04 03:38:39;;;;;;;11.93;6.97;;;;;;;7.06;93.23;97290.03;5047402;28;20099;-65
2022/05/04 03:41:06;;;;;;;9.85;7.20;;;;;;;7.04;93.00;97282.19;5045184;28;20118;-65
2022/05/04 03:43:32;;;;;;;11.20;7.25;;;;;;;6.97;93.38;97285.00;5046705;28;20041;-65
2022/05/04 03:46:16;;;;;;;12.07;7.47;;;;;;;6.96;93.24;97285.25;5045657;28;20041;-65
2022/05/04 03:48:44;;;;;;;11.05;7.57;;;;;;;6.90;93.26;97289.69;5046090;28;20116;-65
2022/05/04 03:51:11;;;;;;;9.85;7.05;;;;;;;6.88;93.27;97284.53;5046489;28;20044;-65
2022/05/04 03:53:37;;;;;;;12.88;7.65;;;;;;;6.87;93.67;97290.13;5046199;28;20048;-65
2022/05/04 03:56:04;;;;;;;10.50;7.72;;;;;;;6.85;93.38;97284.97;5046368;28;20091;-66
2022/05/04 03:58:31;;;;;;;10.95;6.90;;;;;;;6.89;93.90;97286.16;5047058;28;20082;-66
2022/05/04 04:00:58;;;;;;;10.82;7.32;;;;;;;6.97;93.39;97287.69;5060218;28;20052;-66
2022/05/04 04:03:25;;;;;;;11.20;8.13;;;;;;;6.92;93.50;97284.88;5048164;28;20094;-66
2022/05/04 04:05:52;;;;;;;9.43;7.28;;;;;;;6.88;93.29;97289.06;5043422;28;20633;-66
2022/05/04 04:08:18;;;;;;;13.68;7.50;;;;;;;6.90;93.78;97287.78;5050560;28;20061;-66
2022/05/04 04:10:45;;;;;;;11.63;7.65;;;;;;;6.94;93.39;97292.72;5041899;28;20052;-66
2022/05/04 04:13:12;;;;;;;11.20;7.57;;;;;;;6.93;93.72;97283.00;5046183;28;20035;-66
2022/05/04 04:15:38;;;;;;;10.32;7.63;;;;;;;6.89;93.60;97293.41;5042465;28;20048;-66
2022/05/04 04:18:05;;;;;;;10.07;7.03;;;;;;;6.92;93.40;97295.63;5058171;28;20055;-66
2022/05/04 04:23:17;;;;;;;10.95;7.70;;;;;;;6.89;93.11;97298.78;5043527;28;20051;-66
2022/05/04 04:25:43;;;;;;;13.43;9.45;;;;;;;6.92;93.01;97292.94;5041089;28;20060;-66
2022/05/04 04:28:10;;;;;;;12.13;8.32;;;;;;;6.99;92.84;97303.59;5042329;28;20049;-66
2022/05/04 04:30:38;;;;;;;9.70;7.38;;;;;;;7.08;92.52;97301.41;5046321;28;20045;-66
2022/05/04 04:33:06;;;;;;;13.77;8.20;;;;;;;7.22;92.36;97304.72;5044163;28;20098;-66
2022/05/04 04:35:33;;;;;;;11.80;8.15;;;;;;;7.25;92.12;97310.47;5046363;28;20048;-65
2022/05/04 04:38:01;;;;;;;11.75;7.57;;;;;;;7.46;91.53;97310.13;5046180;28;20045;-66
2022/05/04 04:40:27;;;;;;;13.70;7.03;;;;;;;7.60;90.76;97311.56;5044966;28;20045;-66
2022/05/04 04:42:54;;;;;;;10.63;7.28;;;;;;;7.70;90.49;97307.44;5045559;28;20033;-66
2022/05/04 04:45:21;;;;;;;10.25;6.93;;;;;;;7.81;90.63;97314.69;5044642;28;20394;-66
2022/05/04 04:47:48;;;;;;;10.88;7.50;;;;;;;7.90;89.85;97315.16;5043844;28;20040;-66
2022/05/04 04:50:14;;;;;;;10.38;7.13;;;;;;;8.01;89.11;97308.13;5045469;28;20056;-66
2022/05/04 04:52:41;;;;;;;9.73;6.88;;;;;;;8.05;89.23;97320.06;5044665;28;20045;-66
2022/05/04 04:55:08;;;;;;;10.93;6.85;;;;;;;8.12;88.53;97319.94;5045537;28;20094;-66
2022/05/04 04:57:34;;;;;;;9.07;6.68;;;;;;;8.17;88.01;97320.03;5045628;28;20049;-66
2022/05/04 05:00:02;;;;;;;9.52;6.70;;;;;;;8.25;87.72;97322.38;5045010;28;20049;-66
2022/05/04 05:02:29;;;;;;;9.98;7.22;;;;;;;8.32;87.81;97322.25;5045700;28;20128;-66
2022/05/04 05:04:56;;;;;;;9.95;6.50;;;;;;;8.43;86.84;97318.69;5045125;28;20048;-66
2022/05/04 05:07:22;;;;;;;10.20;6.72;;;;;;;8.48;87.11;97319.84;5057959;28;20044;-66
2022/05/04 05:09:49;;;;;;;11.02;6.55;;;;;;;8.45;87.24;97313.88;5045750;28;20056;-66
2022/05/04 05:12:17;;;;;;;11.07;7.55;;;;;;;8.40;87.94;97318.38;5043102;28;20053;-66
2022/05/04 05:17:28;;;;;;;12.05;7.05;;;;;;;8.49;87.85;97321.50;5032197;28;20049;-66
2022/05/04 05:19:55;;;;;;;11.15;7.65;;;;;;;8.50;87.87;97323.97;5045475;28;20401;-66
2022/05/04 05:22:22;;;;;;;11.40;7.47;;;;;;;8.30;88.45;97324.38;5044767;28;20142;-67
2022/05/04 05:24:48;;;;;;;10.38;7.60;;;;;;;8.24;89.01;97323.44;5044863;28;20049;-66
2022/05/04 05:27:15;;;;;;;9.27;7.18;;;;;;;8.34;88.51;97314.75;5040023;28;20045;-66
2022/05/04 05:29:41;;;;;;;10.30;7.85;;;;;;;8.29;89.44;97317.34;5035641;28;20041;-66
2022/05/04 05:32:09;;;;;;;12.18;7.40;;;;;;;8.35;89.49;97310.16;5036316;28;20109;-66
2022/05/04 05:34:35;;;;;;;11.60;7.00;;;;;;;8.43;88.83;97316.00;5040690;28;20053;-66
2022/05/04 05:37:02;;;;;;;12.65;8.20;;;;;;;8.57;89.12;97321.16;5037285;28;20040;-66
2022/05/04 05:39:28;;;;;;;10.55;7.60;;;;;;;8.62;88.26;97315.03;5038206;28;20060;-67
2022/05/04 05:41:55;;;;;;;8.80;6.90;;;;;;;8.84;87.68;97317.84;5038954;28;20111;-66
2022/05/04 05:44:22;;;;;;;14.02;7.13;;;;;;;8.94;87.50;97322.63;5047026;28;20053;-66
2022/05/04 05:46:48;;;;;;;10.15;7.13;;;;;;;9.06;86.90;97314.47;5041691;28;20045;-66
2022/05/04 05:49:15;;;;;;;12.23;7.57;;;;;;;9.29;86.06;97324.31;5040507;28;20048;-66
2022/05/04 05:51:42;;;;;;;11.88;6.88;;;;;;;9.30;86.59;97323.25;5042644;28;20815;-66
2022/05/04 05:54:08;;;;;;;8.95;6.68;;;;;;;9.52;86.21;97332.50;5051067;28;20069;-66
2022/05/04 05:56:35;;;;;;;8.57;6.30;;;;;;;9.62;85.63;97330.78;5043331;28;20094;-66
2022/05/04 05:59:03;;;;;;;9.13;7.05;;;;;;;9.83;84.89;97338.38;5045068;28;20515;-66
2022/05/04 06:01:30;;;;;;;10.00;7.18;;;;;;;10.02;83.66;97339.75;5043353;28;20045;-66
2022/05/04 06:03:57;;;;;;;8.65;6.30;;;;;;;10.26;82.77;97333.28;5045806;28;20059;-66
2022/05/04 06:06:24;;;;;;;11.18;6.45;;;;;;;10.41;82.02;97333.50;5049376;28;20048;-66
2022/05/04 06:08:50;;;;;;;11.68;6.32;;;;;;;10.45;81.70;97338.41;5052828;28;20535;-66
2022/05/04 06:11:17;;;;;;;8.95;6.25;;;;;;;10.54;81.54;97337.72;5045051;28;20045;-66
2022/05/04 06:13:44;;;;;;;8.50;6.45;;;;;;;10.73;81.48;97336.59;5044752;28;20505;-66
2022/05/04 06:16:10;;;;;;;9.57;7.15;;;;;;;10.75;81.57;97343.38;5044078;28;20044;-66
2022/05/04 06:18:37;;;;;;;10.90;7.07;;;;;;;10.59;82.41;97339.69;5045380;28;20612;-66
2022/05/04 06:21:03;;;;;;;12.18;7.60;;;;;;;10.54;82.69;97351.28;5044439;28;20041;-68
2022/05/04 06:23:30;;;;;;;9.30;6.60;;;;;;;10.72;82.40;97348.50;5045254;28;20037;-67
2022/05/04 06:25:56;;;;;;;8.88;6.78;;;;;;;10.56;83.00;97350.19;5044127;28;20095;-67
2022/05/04 06:28:23;;;;;;;11.82;6.18;;;;;;;10.68;81.70;97348.16;5044427;28;20080;-66
2022/05/04 06:36:20;;;;;;;8.15;5.32;;;;;;;10.91;78.95;97351.69;5043810;28;20049;-66
2022/05/04 06:38:47;;;;;;;5.80;4.38;;;;;;;10.88;78.79;97355.69;5043318;28;20064;-66
2022/05/04 06:41:14;;;;;;;7.03;4.90;;;;;;;10.71;79.37;97363.09;5044058;28;20033;-67
2022/05/04 06:43:41;;;;;;;7.32;5.10;;;;;;;10.75;78.59;97358.81;5043789;28;20078;-66
2022/05/04 06:46:08;;;;;;;8.05;5.40;;;;;;;10.90;78.88;97355.44;5043313;28;20048;-66
2022/05/04 06:48:34;;;;;;;8.40;5.32;;;;;;;10.97;79.09;97363.38;5044093;28;20041;-66
2022/05/04 06:51:01;;;;;;;7.75;5.20;;;;;;;11.19;79.11;97360.63;5043534;28;20052;-66
2022/05/04 06:53:27;;;;;;;12.45;4.85;;;;;;;11.42;78.19;97366.78;5038495;28;20036;-53
2022/05/04 06:55:54;;;;;;;8.07;5.32;;;;;;;11.53;77.25;97373.13;5038413;28;20411;-53
2022/05/04 06:58:21;;;;;;;8.27;5.07;;;;;;;11.76;76.26;97376.56;5042307;28;20037;-55
2022/05/04 07:00:47;;;;;;;8.55;4.60;;;;;;;12.01;76.02;97375.94;5037208;28;20502;-55
2022/05/04 07:03:14;;;;;;;8.23;4.95;;;;;;;11.82;76.16;97372.81;5043126;28;20114;-54
2022/05/04 07:05:41;;;;;;;8.02;4.47;;;;;;;12.02;75.65;97374.84;5041308;28;20380;-51
2022/05/04 07:08:07;;;;;;;8.35;5.03;;;;;;;12.03;75.56;97373.78;5043992;28;20405;-54
2022/05/04 07:10:34;;;;;;;6.70;4.47;;;;;;;12.17;75.18;97374.16;5045436;28;20626;-53
2022/05/04 07:13:01;;;;;;;7.03;4.53;;;;;;;12.23;74.69;97372.28;5045531;28;20073;-52
2022/05/04 07:15:28;;;;;;;7.65;4.65;;;;;;;12.51;73.63;97373.00;5041678;28;20045;-54
2022/05/04 07:17:55;;;;;;;6.07;4.22;;;;;;;12.60;73.53;97373.28;5048641;28;20055;-52
2022/05/04 07:20:22;;;;;;;6.40;3.90;;;;;;;12.97;73.30;97363.38;5042726;28;20052;-55
2022/05/04 07:22:49;;;;;;;8.85;4.90;;;;;;;12.95;72.33;97370.97;5043249;28;20103;-54
2022/05/04 07:25:16;;;;;;;6.60;4.47;;;;;;;13.29;72.09;97377.81;5044768;28;20040;-54
2022/05/04 07:27:42;;;;;;;6.68;4.32;;;;;;;13.67;69.87;97373.00;5044260;28;20048;-53
2022/05/04 07:30:10;;;;;;;8.32;4.53;;;;;;;13.84;68.66;97380.91;5044374;28;20056;-55
2022/05/04 07:32:36;;;;;;;6.72;4.57;;;;;;;13.80;69.14;97377.09;5044999;28;20061;-55
2022/05/04 07:35:05;;;;;;;6.47;4.20;;;;;;;13.96;68.19;97374.38;5045801;28;20369;-52
2022/05/04 07:37:32;;;;;;;5.75;4.50;;;;;;;14.02;68.82;97376.81;5035512;28;20143;-50
2022/05/04 07:42:50;;;;;;;8.20;4.28;;;;;;;13.86;71.26;97370.53;5047664;28;20547;-66
2022/05/04 07:45:17;;;;;;;7.00;5.18;;;;;;;13.90;69.19;97370.81;5043890;28;20045;-66
2022/05/04 07:47:44;;;;;;;9.20;5.00;;;;;;;14.10;67.60;97382.75;5043365;28;20068;-66
2022/05/04 07:50:11;;;;;;;6.88;4.80;;;;;;;14.67;65.50;97383.44;5044875;28;20045;-67
2022/05/04 07:52:39;;;;;;;7.30;5.35;;;;;;;14.32;64.78;97379.72;5044345;28;20048;-66
2022/05/04 07:55:06;;;;;;;6.95;5.22;;;;;;;14.57;66.34;97380.75;5043474;28;20508;-66
2022/05/04 07:57:32;;;;;;;7.15;4.68;;;;;;;14.80;65.90;97381.22;5043490;28;20052;-65
2022/05/04 08:05:39;;;;;;;6.43;4.68;;;;;;;15.25;62.44;97386.72;5043357;28;20504;-66
2022/05/04 08:08:05;;;;;;;6.45;4.45;;;;;;;15.14;62.65;97390.63;5058199;28;20041;-65
2022/05/04 08:10:32;;;;;;;6.78;4.75;;;;;;;14.99;63.36;97383.31;5042783;28;20041;-65
2022/05/04 08:12:59;;;;;;;6.78;4.50;;;;;;;15.41;62.71;97392.88;5044300;28;20049;-65
2022/05/04 08:15:26;;;;;;;7.30;4.80;;;;;;;15.02;61.92;97391.75;5042730;28;20098;-64
2022/05/04 08:17:53;;;;;;;6.78;4.57;;;;;;;14.95;64.24;97392.06;5056657;28;20052;-65
2022/05/04 08:20:21;;;;;;;6.53;4.07;;;;;;;15.10;63.92;97386.81;5043399;28;20051;-65
2022/05/04 08:22:47;;;;;;;6.47;4.65;;;;;;;14.97;64.64;97393.69;5043868;28;20048;-65
2022/05/04 08:25:14;;;;;;;15.00;4.70;;;;;;;15.29;63.48;97403.34;5045036;28;20067;-65
2022/05/04 08:27:40;;;;;;;6.32;4.80;;;;;;;15.17;63.92;97406.41;5042453;28;20044;-66
2022/05/04 08:30:07;;;;;;;6.00;4.55;;;;;;;15.15;63.62;97403.16;5043195;28;20475;-65
2022/05/04 08:32:34;;;;;;;7.13;4.93;;;;;;;15.32;62.66;97398.13;5043811;28;20037;-65
2022/05/04 08:35:01;;;;;;;9.48;5.20;;;;;;;15.36;63.64;97405.75;5044664;28;20055;-66
2022/05/04 08:37:28;;;;;;;6.72;4.95;;;;;;;15.43;62.58;97404.34;5041357;28;20467;-65
2022/05/04 08:39:57;;;;;;;6.93;5.00;;;;;;;15.42;63.30;97405.44;5043152;28;20850;-65
2022/05/04 08:42:24;;;;;;;8.27;4.80;;;;;;;15.36;63.34;97412.03;5055268;28;20055;-65
2022/05/04 08:44:58;;;;;;;6.82;5.10;;;;;;;15.29;63.42;97408.81;5043551;28;20056;-65
2022/05/04 08:47:31;;;;;;;6.40;5.00;;;;;;;15.59;62.26;97404.25;5042867;28;20047;-65
2022/05/04 08:49:58;;;;;;;9.77;5.47;;;;;;;15.43;63.28;97401.63;5040676;28;20048;-66
2022/05/04 08:52:27;;;;;;;11.45;6.18;;;;;;;15.68;62.50;97405.25;5038987;28;20420;-65
2022/05/04 08:54:54;;;;;;;11.45;6.97;;;;;;;15.38;64.30;97403.56;5041697;28;20503;-65
2022/05/04 08:57:21;;;;;;;14.63;9.50;;;;;;;15.17;65.35;97407.22;5032616;28;20057;-65
2022/05/04 08:59:48;;;;;;;15.23;8.98;;;;;;;15.01;66.75;97414.69;5042250;28;20048;-65
2022/05/04 09:02:15;;;;;;;8.82;6.78;;;;;;;15.29;65.69;97414.25;5043532;28;20087;-65
2022/05/04 09:04:43;;;;;;;13.40;8.57;;;;;;;15.47;63.91;97412.78;5044452;28;20064;-65
2022/05/04 09:07:23;;;;;;;14.30;8.32;;;;;;;15.16;64.78;97405.59;5056932;28;20052;-66
2022/05/04 09:09:53;;;;;;;12.88;8.30;;;;;;;15.27;64.72;97414.53;5046633;28;20049;-65
2022/05/04 09:12:21;;;;;;;15.35;9.93;;;;;;;15.44;64.76;97413.34;5044969;28;20048;-65
2022/05/04 09:14:48;;;;;;;14.05;8.63;;;;;;;15.64;63.92;97408.84;5045874;28;20071;-65
2022/05/04 09:17:15;;;;;;;18.48;11.20;;;;;;;15.56;64.64;97411.06;5044500;28;20048;-65
2022/05/04 09:22:50;;;;;;;11.27;7.38;;;;;;;15.63;64.72;97402.59;5025814;28;20033;-65
2022/05/04 09:25:18;;;;;;;11.43;7.68;;;;;;;15.71;63.74;97406.59;5046184;28;20056;-65
2022/05/04 09:27:45;;;;;;;9.05;6.93;;;;;;;15.77;63.95;97401.94;5045310;28;20744;-65
2022/05/04 09:30:13;;;;;;;10.10;7.57;;;;;;;15.92;63.46;97414.63;5043708;28;20036;-65
2022/05/04 09:32:40;;;;;;;9.35;6.97;;;;;;;16.29;62.57;97401.50;5045937;28;20056;-65
2022/05/04 09:35:14;;;;;;;8.55;6.68;;;;;;;16.72;61.11;97403.47;5049800;28;20040;-65
2022/05/04 09:46:04;;;;;;;8.68;6.25;;;;;;;16.34;63.08;97409.63;5044623;28;20052;-65
2022/05/04 09:48:34;;;;;;;9.73;6.57;;;;;;;16.31;63.88;97397.38;5043917;28;20037;-65
2022/05/04 09:51:06;;;;;;;10.63;7.30;;;;;;;16.27;63.71;97398.22;5046708;28;20098;-65
2022/05/04 09:53:33;;;;;;;11.70;6.85;;;;;;;16.42;63.90;97410.91;5045405;28;20408;-65
2022/05/04 09:56:01;;;;;;;11.32;6.50;;;;;;;16.63;62.53;97406.84;5046830;28;20056;-64
2022/05/04 09:58:29;;;;;;;11.00;6.60;;;;;;;16.19;63.70;97396.94;5053802;28;20591;-65
2022/05/04 10:00:57;;;;;;;9.68;7.28;;;;;;;16.37;62.82;97398.13;5050733;28;20086;-65
2022/05/04 10:03:25;;;;;;;8.93;7.53;;;;;;;16.01;64.73;97399.28;5042763;28;20128;-64
2022/05/04 10:05:54;;;;;;;7.93;5.97;;;;;;;16.60;62.60;97390.22;5040541;28;20056;-66
2022/05/04 10:08:22;;;;;;;8.23;5.95;;;;;;;16.96;61.54;97399.91;5041708;28;20519;-66
2022/05/04 10:10:50;;;;;;;9.27;6.65;;;;;;;17.28;59.60;97398.41;5041152;28;20497;-66
2022/05/04 10:13:18;;;;;;;7.72;5.88;;;;;;;17.21;59.81;97392.50;5040517;28;20045;-65
2022/05/04 10:15:47;;;;;;;8.65;5.95;;;;;;;17.44;58.29;97392.72;5047796;28;20573;-66
2022/05/04 10:18:20;;;;;;;8.48;6.22;;;;;;;17.49;57.30;97392.63;5042912;28;20053;-66
2022/05/04 10:21:13;;;;;;;7.10;5.60;;;;;;;17.27;58.03;97394.06;5031676;28;20045;-66
2022/05/04 10:23:48;;;;;;;9.73;6.50;;;;;;;17.09;60.05;97390.19;5040193;28;20083;-66
2022/05/04 10:26:14;;;;;;;8.60;6.40;;;;;;;17.35;58.57;97385.19;5040134;28;20053;-66
2022/05/04 10:30:29;;;;;;;8.13;5.78;;;;;;;17.17;58.75;97384.06;5040636;28;20424;-66
2022/05/04 10:31:29;;;;;;;7.63;6.05;;;;;;;17.08;59.76;97377.63;5041328;28;20037;-66
2022/05/04 10:33:56;;;;;;;8.50;4.95;;;;;;;16.82;57.17;97380.66;5042293;28;20056;-66
2022/05/04 10:36:40;;;;;;;8.57;6.00;;;;;;;16.41;58.79;97374.59;5041693;28;20053;-65
2022/05/04 10:39:07;;;;;;;6.47;4.22;;;;;;;16.03;56.42;97368.97;5040784;28;20044;-66
2022/05/04 10:41:38;;;;;;;6.30;4.60;;;;;;;16.35;58.52;97368.38;5057768;28;20519;-66
2022/05/04 10:44:09;;;;;;;7.68;5.13;;;;;;;16.72;58.65;97371.50;5044658;28;20060;-66
2022/05/04 10:46:41;;;;;;;6.47;4.70;;;;;;;16.88;56.62;97368.56;5046303;28;20136;-65
2022/05/04 10:49:13;;;;;;;9.07;5.93;;;;;;;16.37;59.46;97357.16;5044396;28;20466;-62
2022/05/04 10:51:42;;;;;;;7.68;6.10;;;;;;;16.66;58.78;97349.97;5039118;28;20040;-66
2022/05/04 10:54:12;;;;;;;8.23;5.20;;;;;;;16.56;58.90;97362.66;5050779;28;20051;-69
2022/05/04 10:56:43;;;;;;;6.97;5.40;;;;;;;16.70;57.59;97361.97;5046776;28;20062;-69
2022/05/04 10:59:11;;;;;;;8.45;5.82;;;;;;;16.91;58.95;97362.50;5043933;28;20302;-68
2022/05/04 11:01:40;;;;;;;10.30;5.57;;;;;;;17.09;57.36;97357.38;5044983;28;20546;-70
2022/05/04 11:04:09;;;;;;;7.72;4.35;;;;;;;17.31;55.68;97351.31;5048255;28;20428;-67
2022/05/04 11:06:37;;;;;;;5.95;4.55;;;;;;;17.60;55.31;97342.09;5038157;28;20766;-66
2022/05/04 11:09:08;;;;;;;5.80;4.20;;;;;;;17.96;54.50;97339.84;5045705;28;20059;-65
2022/05/04 11:11:36;;;;;;;7.13;4.78;;;;;;;18.03;51.48;97334.81;5046020;28;20045;-70
2022/05/04 11:14:04;;;;;;;7.38;3.92;;;;;;;17.77;51.99;97338.00;5047091;28;20055;-66
2022/05/04 11:16:31;;;;;;;6.65;4.43;;;;;;;18.06;52.53;97335.00;5041326;28;20575;-66
2022/05/04 11:18:59;;;;;;;9.25;4.68;;;;;;;18.15;52.14;97329.69;5046885;28;20052;-66
2022/05/04 11:21:28;;;;;;;6.03;4.32;;;;;;;18.24;50.71;97328.97;5048795;28;20055;-66
2022/05/04 11:23:58;;;;;;;6.28;4.13;;;;;;;18.41;50.46;97326.44;5045607;28;20045;-69
2022/05/04 11:26:27;;;;;;;9.48;5.10;;;;;;;18.58;50.23;97328.56;5043297;28;20049;-66
2022/05/04 11:28:54;;;;;;;7.65;4.35;;;;;;;18.68;51.01;97327.53;5051707;28;20045;-65
2022/05/04 11:31:21;;;;;;;5.85;4.05;;;;;;;18.90;50.63;97320.50;5044008;28;20796;-66
2022/05/04 11:33:49;;;;;;;6.97;4.25;;;;;;;18.91;51.03;97319.38;5044424;28;20125;-66
2022/05/04 11:36:22;;;;;;;6.20;4.10;;;;;;;18.41;48.81;97328.38;5054513;28;20044;-66
2022/05/04 11:38:51;;;;;;;7.35;3.85;;;;;;;17.55;50.15;97329.31;5044544;28;20051;-66
2022/05/04 11:41:18;;;;;;;7.25;4.38;;;;;;;17.45;51.04;97324.00;5043961;28;20064;-66
2022/05/04 11:43:44;;;;;;;7.07;3.80;;;;;;;17.23;51.01;97313.66;5044445;28;20050;-66
2022/05/04 11:46:12;;;;;;;7.30;4.22;;;;;;;17.19;51.48;97320.84;5053516;28;20041;-67
2022/05/04 11:48:47;;;;;;;7.22;4.65;;;;;;;17.37;54.28;97319.22;5049979;28;20037;-64
2022/05/04 11:51:16;;;;;;;7.78;4.70;;;;;;;17.40;57.74;97322.16;5044106;28;20496;-67
2022/05/04 11:53:45;;;;;;;6.57;3.97;;;;;;;16.34;61.98;97317.56;5042770;28;20052;-64
2022/05/04 11:56:12;;;;;;;9.77;5.63;;;;;;;15.90;66.63;97326.72;5044426;28;20439;-68
2022/05/04 11:58:38;;;;;;;10.45;6.13;;;;;;;15.59;72.17;97322.38;5043615;28;20041;-66
2022/05/04 12:01:07;;;;;;;9.68;6.63;;;;;;;14.87;75.48;97329.97;5041742;28;20037;-65
2022/05/04 12:03:38;;;;;;;9.40;6.55;;;;;;;14.71;77.29;97326.47;5046651;28;20536;-69
2022/05/04 12:06:09;;;;;;;10.43;7.57;;;;;;;14.72;77.95;97317.19;5047992;28;20052;-68
2022/05/04 12:08:37;;;;;;;12.25;6.75;;;;;;;14.79;77.82;97322.38;5047884;28;20475;-66
2022/05/04 12:11:05;;;;;;;11.48;5.85;;;;;;;15.02;77.68;97320.03;5045439;28;20047;-65
2022/05/04 12:13:35;;;;;;;10.82;6.53;;;;;;;15.06;75.06;97321.94;5047087;28;20048;-65
2022/05/04 12:16:03;;;;;;;8.98;6.30;;;;;;;15.25;75.61;97320.47;5045218;28;20684;-64
2022/05/04 12:18:32;;;;;;;9.75;6.35;;;;;;;15.53;76.05;97323.50;5044404;28;20224;-68